Time;durP1;ratioP1;P1;durP2;ratioP2;P2;SDS_P1;SDS_P2;PMS_P1;PMS_P2;Temp;Humidity;BMP_temperature;BMP_pressure;BME280_temperature;BME280_humidity;BME280_pressure;Samples;Min_cycle;Max_cycle;Signal;HPM_P1;HPM_P2
2022/01/05 00:00:27;;;;;;;9.98;1.83;;;2.30;99.90;;;;;;5078513;28;20039;-65
2022/01/05 00:02:52;;;;;;;9.88;2.08;;;2.30;99.90;;;;;;5083873;28;20108;-65
2022/01/05 00:05:18;;;;;;;6.78;2.17;;;2.40;99.90;;;;;;5083672;28;20045;-65
2022/01/05 00:07:44;;;;;;;9.02;1.67;;;2.50;99.90;;;;;;5082921;28;20079;-65
2022/01/05 00:10:10;;;;;;;5.07;1.52;;;2.30;99.90;;;;;;5083088;28;20044;-66
2022/01/05 00:12:36;;;;;;;9.20;2.47;;;2.30;99.90;;;;;;5111396;28;20558;-65
2022/01/05 00:15:02;;;;;;;9.18;2.00;;;2.30;99.90;;;;;;5076435;28;20037;-66
2022/01/05 00:17:28;;;;;;;15.40;2.63;;;2.40;99.90;;;;;;5082909;28;20582;-65
2022/01/05 00:19:54;;;;;;;9.93;1.67;;;2.60;99.90;;;;;;5083633;28;20037;-66
2022/01/05 00:22:20;;;;;;;8.68;1.85;;;2.50;99.90;;;;;;5083754;28;20105;-65
2022/01/05 00:24:46;;;;;;;14.48;3.45;;;2.60;99.90;;;;;;5081893;28;20108;-65
2022/01/05 00:27:12;;;;;;;7.80;2.40;;;2.50;99.90;;;;;;5078349;28;20099;-65
2022/01/05 00:29:37;;;;;;;10.32;2.45;;;2.30;99.90;;;;;;5080344;28;20048;-65
2022/01/05 00:32:04;;;;;;;13.00;2.40;;;2.40;99.90;;;;;;5071754;28;20044;-65
2022/01/05 00:34:29;;;;;;;10.80;2.10;;;2.40;99.90;;;;;;5082309;28;20052;-65
2022/01/05 00:36:55;;;;;;;8.38;1.90;;;2.30;99.90;;;;;;5086028;28;20047;-65
2022/01/05 00:39:21;;;;;;;16.65;2.13;;;2.40;99.90;;;;;;5087815;28;20111;-65
2022/01/05 00:41:47;;;;;;;11.02;2.97;;;2.40;99.90;;;;;;5086897;28;20051;-65
2022/01/05 00:44:12;;;;;;;12.90;2.15;;;2.30;99.90;;;;;;5087633;28;20036;-65
2022/01/05 00:46:38;;;;;;;12.30;2.00;;;2.30;99.90;;;;;;5079617;28;20048;-65
2022/01/05 00:49:04;;;;;;;9.30;1.67;;;2.40;99.90;;;;;;5086338;28;20029;-65
2022/01/05 00:51:30;;;;;;;12.43;2.03;;;2.50;99.90;;;;;;5085947;28;20063;-65
2022/01/05 00:53:56;;;;;;;10.80;1.77;;;2.50;99.90;;;;;;5083286;28;20040;-65
2022/01/05 00:56:21;;;;;;;9.43;1.85;;;2.70;99.90;;;;;;5086205;28;20068;-65
2022/01/05 00:58:47;;;;;;;10.88;2.85;;;2.70;99.90;;;;;;5087280;28;20071;-65
2022/01/05 01:01:13;;;;;;;8.48;2.63;;;2.70;99.90;;;;;;5087459;28;20048;-65
2022/01/05 01:03:39;;;;;;;10.48;2.00;;;2.80;99.90;;;;;;5087421;28;20224;-65
2022/01/05 01:06:05;;;;;;;13.75;2.20;;;2.70;99.90;;;;;;5085010;28;20501;-65
2022/01/05 01:08:32;;;;;;;12.15;1.67;;;2.70;99.90;;;;;;5085509;28;20099;-65
2022/01/05 01:10:58;;;;;;;10.63;3.13;;;2.60;99.90;;;;;;5079381;28;20060;-65
2022/01/05 01:13:24;;;;;;;9.52;1.92;;;2.60;99.90;;;;;;5084384;28;20055;-65
2022/01/05 01:15:51;;;;;;;12.35;2.00;;;2.40;99.90;;;;;;5077199;28;20040;-65
2022/01/05 01:18:18;;;;;;;9.65;1.63;;;2.40;99.90;;;;;;5080044;28;20053;-65
2022/01/05 01:20:49;;;;;;;8.57;1.77;;;2.30;99.90;;;;;;5083260;28;20174;-65
2022/01/05 01:23:19;;;;;;;11.20;1.98;;;2.30;99.90;;;;;;5080149;28;20053;-65
2022/01/05 01:25:45;;;;;;;9.13;1.83;;;2.30;99.90;;;;;;5078473;28;20051;-65
2022/01/05 01:28:11;;;;;;;15.75;2.63;;;2.40;99.90;;;;;;5078844;28;20064;-65
2022/01/05 01:30:36;;;;;;;9.15;1.85;;;2.30;99.90;;;;;;5084271;28;20055;-65
2022/01/05 01:33:03;;;;;;;7.05;1.50;;;2.30;99.90;;;;;;5085648;28;20143;-65
2022/01/05 01:35:29;;;;;;;7.38;1.75;;;2.40;99.90;;;;;;5076678;28;20071;-65
2022/01/05 01:37:55;;;;;;;11.52;2.10;;;2.30;99.90;;;;;;5076804;28;20045;-65
2022/01/05 01:40:22;;;;;;;12.25;1.83;;;2.50;99.90;;;;;;5081810;28;20044;-66
2022/01/05 01:42:48;;;;;;;13.45;1.90;;;2.50;99.90;;;;;;5081199;28;20044;-65
2022/01/05 01:45:14;;;;;;;8.18;1.58;;;2.40;99.90;;;;;;5079023;28;20035;-65
2022/01/05 01:47:40;;;;;;;7.22;1.55;;;2.40;99.90;;;;;;5077869;28;20045;-65
2022/01/05 01:50:08;;;;;;;15.15;2.88;;;2.50;99.90;;;;;;5082664;28;20044;-65
2022/01/05 01:52:33;;;;;;;6.93;1.58;;;2.50;99.90;;;;;;5086244;28;20072;-65
2022/01/05 01:55:00;;;;;;;12.20;2.28;;;2.50;99.90;;;;;;5084908;28;20816;-65
2022/01/05 01:57:28;;;;;;;9.60;1.75;;;2.50;99.90;;;;;;5085585;28;20041;-65
2022/01/05 01:59:57;;;;;;;10.63;1.67;;;2.60;99.90;;;;;;5070752;28;20049;-65
2022/01/05 02:02:23;;;;;;;9.57;1.80;;;2.60;99.90;;;;;;5085403;28;20056;-65
2022/01/05 02:04:49;;;;;;;8.75;1.80;;;2.60;99.90;;;;;;5084854;28;20052;-65
2022/01/05 02:07:15;;;;;;;9.73;1.90;;;2.60;99.90;;;;;;5079106;28;20049;-65
2022/01/05 02:09:41;;;;;;;6.35;1.75;;;2.50;99.90;;;;;;5082393;28;20033;-65
2022/01/05 02:12:07;;;;;;;8.50;2.10;;;2.50;99.90;;;;;;5084737;28;20067;-65
2022/01/05 02:14:33;;;;;;;11.50;2.40;;;2.50;99.90;;;;;;5085871;28;20046;-65
2022/01/05 02:17:03;;;;;;;8.98;1.90;;;2.50;99.90;;;;;;5085721;28;20047;-65
2022/01/05 02:19:29;;;;;;;10.88;2.70;;;2.50;99.90;;;;;;5079148;28;20567;-65
2022/01/05 02:21:55;;;;;;;11.68;1.88;;;2.70;99.90;;;;;;5079646;28;20056;-66
2022/01/05 02:24:21;;;;;;;10.45;2.00;;;2.70;99.90;;;;;;5083349;28;20044;-65
2022/01/05 02:26:47;;;;;;;9.93;1.80;;;2.60;99.90;;;;;;5078704;28;20049;-65
2022/01/05 02:29:13;;;;;;;7.93;2.15;;;2.70;99.90;;;;;;5076249;28;20048;-65
2022/01/05 02:31:38;;;;;;;6.57;1.85;;;2.70;99.90;;;;;;5080544;28;20103;-65
2022/01/05 02:34:04;;;;;;;11.73;1.90;;;2.60;99.90;;;;;;5075257;28;20037;-65
2022/01/05 02:36:31;;;;;;;15.20;2.22;;;2.60;99.90;;;;;;5085515;28;20101;-65
2022/01/05 02:38:57;;;;;;;9.82;2.38;;;2.70;99.90;;;;;;5076704;28;20044;-65
2022/01/05 02:41:23;;;;;;;11.40;2.38;;;2.60;99.90;;;;;;5076077;28;20577;-65
2022/01/05 02:43:49;;;;;;;11.43;2.60;;;2.70;99.90;;;;;;5079967;28;20045;-65
2022/01/05 02:46:18;;;;;;;9.20;2.13;;;2.60;99.90;;;;;;5085075;28;20472;-65
2022/01/05 02:48:44;;;;;;;11.23;2.70;;;2.60;99.90;;;;;;5082579;28;20044;-65
2022/01/05 02:51:11;;;;;;;14.38;2.72;;;2.60;99.90;;;;;;5077254;28;20074;-65
2022/01/05 02:53:37;;;;;;;15.00;1.90;;;2.60;99.90;;;;;;5083480;28;20036;-65
2022/01/05 02:56:04;;;;;;;14.32;2.45;;;2.50;99.90;;;;;;5075937;28;20055;-65
2022/01/05 02:58:30;;;;;;;9.95;2.40;;;2.60;99.90;;;;;;5082855;28;20052;-65
2022/01/05 03:00:56;;;;;;;9.38;2.13;;;2.60;99.90;;;;;;5082054;28;20044;-65
2022/01/05 03:03:22;;;;;;;14.05;2.10;;;2.60;99.90;;;;;;5079212;28;20041;-65
2022/01/05 03:05:48;;;;;;;9.73;2.60;;;2.70;99.90;;;;;;5073976;28;20072;-65
2022/01/05 03:08:13;;;;;;;13.30;2.30;;;2.60;99.90;;;;;;5080433;28;20142;-65
2022/01/05 03:10:39;;;;;;;14.40;2.85;;;2.60;99.90;;;;;;5084708;28;20045;-65
2022/01/05 03:13:05;;;;;;;17.30;2.60;;;2.50;99.90;;;;;;5084706;28;20368;-65
2022/01/05 03:15:31;;;;;;;8.68;1.80;;;2.50;99.90;;;;;;5083342;28;20074;-65
2022/01/05 03:17:56;;;;;;;13.20;2.75;;;2.50;99.90;;;;;;5084624;28;20044;-65
2022/01/05 03:20:22;;;;;;;12.80;2.40;;;2.60;99.90;;;;;;5083102;28;20056;-65
2022/01/05 03:22:49;;;;;;;15.52;3.08;;;2.70;99.90;;;;;;5078088;28;20061;-65
2022/01/05 03:25:19;;;;;;;12.13;2.25;;;2.70;99.90;;;;;;5070675;28;20129;-65
2022/01/05 03:27:47;;;;;;;13.32;2.25;;;2.60;99.90;;;;;;5083612;28;20568;-65
2022/01/05 03:30:25;;;;;;;15.00;2.75;;;2.70;99.90;;;;;;5083707;28;20044;-65
2022/01/05 03:35:43;;;;;;;15.27;2.78;;;2.50;99.90;;;;;;5083462;28;20078;-65
2022/01/05 03:38:10;;;;;;;15.88;3.72;;;2.50;99.90;;;;;;5076259;28;20059;-65
2022/01/05 03:40:36;;;;;;;17.67;4.05;;;2.60;99.90;;;;;;5078525;28;20434;-65
2022/01/05 03:43:04;;;;;;;14.93;2.42;;;2.60;99.90;;;;;;5081627;28;20044;-65
2022/01/05 03:45:30;;;;;;;12.27;2.40;;;2.70;99.90;;;;;;5077422;28;20056;-65
2022/01/05 03:47:56;;;;;;;11.60;2.10;;;2.70;99.90;;;;;;5083509;28;20067;-65
2022/01/05 03:50:21;;;;;;;17.25;3.47;;;2.60;99.90;;;;;;5076107;28;20040;-65
2022/01/05 03:52:47;;;;;;;14.15;2.72;;;2.60;99.90;;;;;;5083424;28;20066;-65
2022/01/05 03:55:13;;;;;;;10.60;2.47;;;2.80;99.90;;;;;;5078128;28;20523;-65
2022/01/05 03:57:38;;;;;;;11.38;2.22;;;2.80;99.90;;;;;;5074780;28;20070;-65
2022/01/05 04:00:06;;;;;;;18.50;2.63;;;2.80;99.90;;;;;;5083158;28;20040;-65
2022/01/05 04:02:32;;;;;;;14.77;3.05;;;2.90;99.90;;;;;;5082962;28;20076;-65
2022/01/05 04:04:58;;;;;;;15.27;3.00;;;3.00;99.90;;;;;;5086394;28;20048;-65
2022/01/05 04:07:23;;;;;;;11.75;2.47;;;3.00;99.90;;;;;;5087357;28;20083;-65
2022/01/05 04:09:49;;;;;;;17.33;2.70;;;3.10;99.90;;;;;;5086149;28;20047;-65
2022/01/05 04:12:15;;;;;;;14.70;2.85;;;2.90;99.90;;;;;;5083632;28;20066;-65
2022/01/05 04:14:40;;;;;;;15.98;3.40;;;3.10;99.90;;;;;;5119814;28;20048;-65
2022/01/05 04:17:06;;;;;;;20.90;4.22;;;3.00;99.90;;;;;;5087404;28;20032;-65
2022/01/05 04:19:32;;;;;;;15.27;2.40;;;2.90;99.90;;;;;;5087308;28;20127;-65
2022/01/05 04:21:58;;;;;;;14.65;2.50;;;3.10;99.90;;;;;;5080761;28;20056;-66
2022/01/05 04:24:23;;;;;;;17.75;3.00;;;3.00;99.90;;;;;;5087416;28;20052;-65
2022/01/05 04:26:49;;;;;;;11.93;2.20;;;3.00;99.90;;;;;;5085347;28;20052;-65
2022/01/05 04:29:15;;;;;;;14.95;2.90;;;3.10;99.90;;;;;;5087515;28;20078;-65
2022/01/05 04:31:41;;;;;;;17.45;2.40;;;3.20;99.90;;;;;;5085593;28;20040;-65
2022/01/05 04:34:06;;;;;;;15.80;2.63;;;3.10;99.90;;;;;;5085909;28;20052;-65
2022/01/05 04:36:33;;;;;;;13.90;2.72;;;3.20;99.90;;;;;;5087284;28;20071;-65
2022/01/05 04:38:58;;;;;;;16.17;2.30;;;3.30;99.90;;;;;;5087627;28;20037;-65
2022/01/05 04:41:24;;;;;;;12.13;2.45;;;3.30;99.90;;;;;;5085207;28;20044;-65
2022/01/05 04:43:50;;;;;;;18.08;2.70;;;3.40;99.90;;;;;;5087058;28;20037;-65
2022/01/05 04:46:15;;;;;;;13.73;2.45;;;3.50;99.90;;;;;;5087153;28;20053;-65
2022/01/05 04:48:42;;;;;;;13.75;2.85;;;3.60;99.90;;;;;;5086922;28;20048;-65
2022/01/05 04:51:08;;;;;;;16.55;2.78;;;3.60;99.90;;;;;;5086015;28;20520;-65
2022/01/05 04:53:34;;;;;;;15.55;3.15;;;3.50;99.90;;;;;;5087210;28;20066;-65
2022/01/05 04:55:59;;;;;;;11.15;2.55;;;3.60;99.90;;;;;;5080340;28;20463;-65
2022/01/05 04:58:25;;;;;;;8.38;2.10;;;3.50;99.90;;;;;;5085891;28;20049;-65
2022/01/05 05:00:51;;;;;;;9.73;1.90;;;3.40;99.90;;;;;;5083247;28;20052;-66
2022/01/05 05:03:17;;;;;;;12.52;2.45;;;3.40;99.90;;;;;;5088217;28;20070;-65
2022/01/05 05:05:42;;;;;;;12.38;2.63;;;3.30;99.90;;;;;;5086723;28;20068;-65
2022/01/05 05:08:08;;;;;;;12.90;2.58;;;3.40;99.90;;;;;;5090928;28;20044;-66
2022/01/05 05:10:34;;;;;;;13.68;2.55;;;3.30;99.90;;;;;;5105250;28;20040;-65
2022/01/05 05:13:07;;;;;;;13.38;2.15;;;3.30;99.90;;;;;;5106882;28;20080;-65
2022/01/05 05:15:32;;;;;;;12.88;2.00;;;3.20;99.90;;;;;;5106315;28;20085;-65
2022/01/05 05:17:58;;;;;;;11.05;2.15;;;3.40;99.90;;;;;;5105662;28;20079;-65
2022/01/05 05:20:24;;;;;;;15.40;2.53;;;3.40;99.90;;;;;;5103621;28;20064;-65
2022/01/05 05:22:49;;;;;;;13.38;2.25;;;3.50;99.90;;;;;;5067925;28;20102;-66
2022/01/05 05:25:15;;;;;;;14.00;2.67;;;3.40;99.90;;;;;;5086435;28;20048;-65
2022/01/05 05:27:41;;;;;;;15.13;2.10;;;3.50;99.90;;;;;;5086234;28;20096;-65
2022/01/05 05:30:07;;;;;;;10.43;1.92;;;3.50;99.90;;;;;;5086222;28;20510;-65
2022/01/05 05:32:33;;;;;;;11.80;2.85;;;3.50;99.90;;;;;;5118179;28;20052;-65
2022/01/05 05:34:59;;;;;;;10.52;2.13;;;3.40;99.90;;;;;;5085912;28;20075;-65
2022/01/05 05:37:24;;;;;;;12.45;2.22;;;3.40;99.90;;;;;;5086236;28;20595;-65
2022/01/05 05:39:50;;;;;;;12.27;2.17;;;3.50;99.90;;;;;;5101642;28;20071;-65
2022/01/05 05:42:16;;;;;;;12.15;2.47;;;3.50;99.90;;;;;;5105832;28;20052;-65
2022/01/05 05:44:41;;;;;;;12.00;1.80;;;3.50;99.90;;;;;;5105146;28;20036;-65
2022/01/05 05:47:07;;;;;;;10.45;2.30;;;3.60;99.90;;;;;;5106047;28;20047;-65
2022/01/05 05:49:33;;;;;;;11.20;2.47;;;3.60;99.90;;;;;;5106226;28;20471;-65
2022/01/05 05:51:59;;;;;;;14.43;3.30;;;3.60;99.90;;;;;;5104538;28;20040;-65
2022/01/05 05:54:25;;;;;;;12.15;2.70;;;3.60;99.90;;;;;;5106028;28;20071;-65
2022/01/05 05:56:50;;;;;;;11.10;2.47;;;3.70;99.90;;;;;;5081300;28;20045;-65
2022/01/05 05:59:16;;;;;;;14.82;2.42;;;3.80;99.90;;;;;;5077982;28;20041;-65
2022/01/05 06:01:42;;;;;;;12.15;2.08;;;3.80;99.90;;;;;;5079071;28;20044;-65
2022/01/05 06:04:08;;;;;;;15.55;3.28;;;3.90;99.90;;;;;;5084531;28;20036;-65
2022/01/05 06:06:33;;;;;;;10.07;2.17;;;3.90;99.90;;;;;;5084706;28;20406;-65
2022/01/05 06:08:59;;;;;;;10.82;1.98;;;3.90;99.90;;;;;;5085290;28;20048;-65
2022/01/05 06:11:25;;;;;;;18.67;2.30;;;3.90;99.90;;;;;;5083506;28;20079;-65
2022/01/05 06:13:52;;;;;;;9.70;2.33;;;4.00;99.90;;;;;;5085175;28;20112;-65
2022/01/05 06:16:18;;;;;;;11.50;2.42;;;4.10;99.90;;;;;;5083728;28;20048;-65
2022/01/05 06:18:44;;;;;;;13.38;2.67;;;4.10;99.90;;;;;;5083852;28;20087;-65
2022/01/05 06:21:09;;;;;;;16.67;2.25;;;4.10;99.90;;;;;;5084001;28;20040;-65
2022/01/05 06:23:35;;;;;;;13.32;2.30;;;4.20;99.90;;;;;;5070046;28;20387;-65
2022/01/05 06:26:01;;;;;;;14.80;3.33;;;4.20;99.90;;;;;;5083961;28;20074;-65
2022/01/05 06:28:27;;;;;;;17.45;2.80;;;4.30;99.90;;;;;;5083881;28;20044;-65
2022/01/05 06:30:52;;;;;;;19.95;2.67;;;4.20;99.90;;;;;;5077469;28;20048;-65
2022/01/05 06:33:18;;;;;;;13.10;2.20;;;4.10;99.90;;;;;;5073604;28;20041;-66
2022/01/05 06:35:44;;;;;;;11.27;2.20;;;3.90;99.90;;;;;;5080673;28;20091;-66
2022/01/05 06:38:10;;;;;;;12.45;2.00;;;3.70;99.90;;;;;;5085127;28;20397;-65
2022/01/05 06:40:36;;;;;;;14.38;2.67;;;3.70;99.90;;;;;;5076553;28;20127;-65
2022/01/05 06:43:02;;;;;;;17.10;2.42;;;3.70;99.90;;;;;;5074759;28;20045;-65
2022/01/05 06:45:28;;;;;;;12.52;2.55;;;3.70;99.90;;;;;;5084816;28;20051;-66
2022/01/05 06:47:54;;;;;;;15.40;2.58;;;3.60;99.90;;;;;;5083656;28;20049;-66
2022/01/05 06:50:20;;;;;;;14.73;2.80;;;3.70;99.90;;;;;;5080039;28;20055;-66
2022/01/05 06:52:45;;;;;;;12.30;2.58;;;3.70;99.90;;;;;;5053608;28;20400;-66
2022/01/05 06:55:11;;;;;;;11.77;2.42;;;3.80;99.90;;;;;;5082240;28;20036;-66
2022/01/05 06:57:40;;;;;;;13.85;2.92;;;3.80;99.90;;;;;;5077510;28;20109;-65
2022/01/05 07:00:07;;;;;;;16.25;2.75;;;3.70;99.90;;;;;;5083225;28;20052;-65
2022/01/05 07:02:33;;;;;;;14.57;2.47;;;3.80;99.90;;;;;;5081643;28;20049;-66
2022/01/05 07:04:59;;;;;;;13.88;3.35;;;3.70;99.90;;;;;;5084793;28;20040;-65
2022/01/05 07:07:24;;;;;;;14.05;2.75;;;3.80;99.90;;;;;;5083241;28;20052;-65
2022/01/05 07:09:50;;;;;;;9.40;2.70;;;3.80;99.90;;;;;;5076584;28;20051;-66
2022/01/05 07:12:16;;;;;;;14.10;2.50;;;3.90;99.90;;;;;;5083906;28;20060;-66
2022/01/05 07:14:41;;;;;;;9.75;2.40;;;3.90;99.90;;;;;;5083430;28;20128;-66
2022/01/05 07:17:07;;;;;;;17.50;2.97;;;3.90;99.90;;;;;;5077082;28;20051;-66
2022/01/05 07:19:33;;;;;;;13.23;2.30;;;4.00;99.90;;;;;;5082557;28;20079;-65
2022/01/05 07:21:59;;;;;;;10.43;2.50;;;3.90;99.90;;;;;;5066300;28;20047;-66
2022/01/05 07:24:24;;;;;;;11.93;2.28;;;3.90;99.90;;;;;;5076358;28;20057;-66
2022/01/05 07:26:50;;;;;;;7.45;2.13;;;4.00;99.90;;;;;;5082879;28;20092;-64
2022/01/05 07:29:18;;;;;;;10.25;2.20;;;3.90;99.90;;;;;;5028304;28;20047;-68
2022/01/05 07:31:44;;;;;;;11.27;2.45;;;3.90;99.90;;;;;;5044627;28;20064;-67
2022/01/05 07:34:10;;;;;;;11.27;1.90;;;3.80;99.90;;;;;;5079360;28;20048;-68
2022/01/05 07:36:35;;;;;;;7.68;2.00;;;3.80;99.90;;;;;;5077211;28;20047;-68
2022/01/05 07:39:03;;;;;;;10.05;2.88;;;3.90;99.90;;;;;;5077310;28;20051;-68
2022/01/05 07:41:29;;;;;;;9.23;1.55;;;3.80;99.90;;;;;;5090205;28;20057;-68
2022/01/05 07:43:55;;;;;;;6.50;1.60;;;3.90;99.90;;;;;;5104579;28;20048;-68
2022/01/05 07:46:21;;;;;;;5.30;1.25;;;3.80;99.90;;;;;;5079048;28;20105;-69
2022/01/05 07:48:46;;;;;;;7.28;1.63;;;3.80;99.90;;;;;;5077789;28;20238;-67
2022/01/05 07:51:13;;;;;;;5.80;1.20;;;3.70;99.90;;;;;;5095973;28;20107;-68
2022/01/05 07:53:39;;;;;;;6.68;1.30;;;3.70;99.90;;;;;;5072807;28;20090;-68
2022/01/05 07:56:05;;;;;;;6.45;1.38;;;3.70;99.90;;;;;;5094034;28;20036;-67
2022/01/05 07:58:30;;;;;;;6.60;1.13;;;3.80;99.90;;;;;;5100693;28;20092;-70
2022/01/05 08:00:56;;;;;;;6.82;1.45;;;3.70;99.90;;;;;;5095761;28;20389;-69
2022/01/05 08:03:22;;;;;;;6.32;1.40;;;3.60;99.90;;;;;;5079033;28;20048;-70
2022/01/05 08:05:50;;;;;;;9.98;1.90;;;3.70;99.90;;;;;;5084372;28;20048;-69
2022/01/05 08:08:16;;;;;;;9.63;2.80;;;3.70;99.90;;;;;;5079753;28;20041;-69
2022/01/05 08:10:42;;;;;;;6.07;1.30;;;3.70;99.90;;;;;;5100646;28;20503;-69
2022/01/05 08:13:08;;;;;;;8.35;1.40;;;3.70;99.90;;;;;;5077867;28;20049;-69
2022/01/05 08:15:34;;;;;;;7.57;2.00;;;3.70;99.90;;;;;;5102596;28;20051;-69
2022/01/05 08:17:59;;;;;;;9.70;2.00;;;3.70;99.90;;;;;;5113149;28;20052;-69
2022/01/05 08:20:25;;;;;;;7.30;1.60;;;3.90;99.90;;;;;;5107518;28;20059;-69
2022/01/05 08:22:51;;;;;;;6.13;1.73;;;3.90;99.90;;;;;;5081830;28;20067;-68
2022/01/05 08:25:20;;;;;;;13.18;2.42;;;4.00;99.90;;;;;;5083776;28;20044;-67
2022/01/05 08:27:46;;;;;;;9.48;2.22;;;4.00;99.90;;;;;;5068656;28;20126;-66
2022/01/05 08:30:21;;;;;;;12.18;2.00;;;4.00;99.90;;;;;;5082252;28;20584;-69
2022/01/05 08:32:47;;;;;;;6.03;1.42;;;4.00;99.90;;;;;;5065532;28;20087;-73
2022/01/05 08:35:14;;;;;;;9.93;1.48;;;4.00;99.90;;;;;;5092986;28;20541;-70
2022/01/05 08:37:44;;;;;;;5.97;1.55;;;4.10;99.90;;;;;;5086621;28;20143;-76
2022/01/05 08:40:14;;;;;;;5.95;1.33;;;4.30;99.90;;;;;;5105618;28;20135;-74
2022/01/05 08:42:40;;;;;;;10.57;1.85;;;4.20;99.90;;;;;;5083170;28;20040;-74
2022/01/05 08:45:07;;;;;;;10.38;1.50;;;4.30;99.90;;;;;;5085838;28;20054;-74
2022/01/05 08:47:33;;;;;;;7.45;1.52;;;4.40;99.90;;;;;;5076067;28;20052;-72
2022/01/05 08:49:58;;;;;;;13.10;1.70;;;4.30;99.90;;;;;;5070267;28;20428;-70
2022/01/05 08:52:24;;;;;;;9.43;1.80;;;4.50;99.90;;;;;;5087136;28;20623;-71
2022/01/05 08:54:50;;;;;;;9.77;1.70;;;4.40;99.90;;;;;;5068455;28;20436;-72
2022/01/05 08:57:16;;;;;;;12.73;1.92;;;4.50;99.90;;;;;;5070627;28;20044;-71
2022/01/05 08:59:43;;;;;;;8.73;2.05;;;4.60;99.90;;;;;;5067038;28;20056;-70
2022/01/05 09:02:09;;;;;;;9.95;2.08;;;4.60;99.90;;;;;;5103779;28;20048;-71
2022/01/05 09:04:34;;;;;;;13.07;2.05;;;4.80;99.90;;;;;;5070181;28;20115;-71
2022/01/05 09:07:00;;;;;;;12.77;2.30;;;4.80;99.90;;;;;;5096805;28;20060;-71
2022/01/05 09:09:26;;;;;;;7.13;1.88;;;4.90;99.90;;;;;;5056569;28;20056;-71
2022/01/05 09:11:52;;;;;;;12.50;2.03;;;4.90;99.90;;;;;;5103075;28;20405;-71
2022/01/05 09:14:18;;;;;;;15.90;2.60;;;5.10;99.90;;;;;;5056962;28;20068;-71
2022/01/05 09:16:44;;;;;;;14.40;2.08;;;5.20;99.90;;;;;;5091047;28;20052;-70
2022/01/05 09:19:10;;;;;;;11.82;2.90;;;5.20;99.90;;;;;;5039769;28;20533;-71
2022/01/05 09:21:36;;;;;;;9.20;1.92;;;5.40;99.90;;;;;;5063248;28;20074;-71
2022/01/05 09:24:03;;;;;;;9.95;1.67;;;5.30;99.90;;;;;;5075551;28;20059;-71
2022/01/05 09:26:28;;;;;;;11.70;1.70;;;5.40;99.90;;;;;;5082068;28;20044;-71
2022/01/05 09:28:54;;;;;;;8.40;1.50;;;5.40;99.90;;;;;;5081382;28;20060;-71
2022/01/05 09:31:20;;;;;;;8.02;2.00;;;5.50;99.90;;;;;;5052999;28;20184;-71
2022/01/05 09:33:46;;;;;;;9.15;1.88;;;5.50;99.90;;;;;;5077706;28;20056;-71
2022/01/05 09:36:29;;;;;;;10.13;1.45;;;5.50;99.90;;;;;;5062805;28;20056;-71
2022/01/05 09:41:57;;;;;;;8.60;2.08;;;5.30;99.90;;;;;;5081313;28;20623;-71
2022/01/05 09:44:44;;;;;;;12.10;2.08;;;5.40;99.90;;;;;;5085772;28;20052;-71
2022/01/05 09:47:09;;;;;;;9.38;2.47;;;5.40;99.90;;;;;;5085537;28;20519;-71
2022/01/05 09:49:38;;;;;;;14.70;2.03;;;5.40;99.90;;;;;;5068119;28;20045;-71
2022/01/05 09:52:09;;;;;;;11.98;1.90;;;5.40;99.90;;;;;;5072652;28;20048;-71
2022/01/05 09:54:36;;;;;;;9.77;1.88;;;5.50;99.90;;;;;;5065478;28;20052;-71
2022/01/05 09:57:05;;;;;;;12.48;2.20;;;5.70;99.90;;;;;;5091744;28;20078;-71
2022/01/05 09:59:34;;;;;;;14.02;2.08;;;5.60;99.90;;;;;;5081735;28;20051;-71
2022/01/05 10:02:00;;;;;;;14.32;2.05;;;5.80;99.90;;;;;;5090617;28;20044;-71
2022/01/05 10:04:26;;;;;;;15.57;2.17;;;5.90;99.90;;;;;;5068833;28;20286;-71
2022/01/05 10:06:52;;;;;;;17.92;3.08;;;5.90;99.90;;;;;;5088552;28;20048;-71
2022/01/05 10:09:18;;;;;;;9.55;2.10;;;5.90;99.90;;;;;;5109667;28;20086;-71
2022/01/05 10:11:43;;;;;;;20.25;2.40;;;5.80;99.90;;;;;;5075890;28;20044;-72
2022/01/05 10:14:12;;;;;;;16.60;2.60;;;5.80;99.90;;;;;;5108067;28;20049;-72
2022/01/05 10:16:39;;;;;;;12.35;2.45;;;5.70;99.90;;;;;;5072788;28;20345;-71
2022/01/05 10:19:06;;;;;;;13.77;2.35;;;5.70;99.90;;;;;;5109915;28;20103;-71
2022/01/05 10:21:38;;;;;;;17.30;3.42;;;5.80;99.90;;;;;;5054541;28;20045;-71
2022/01/05 10:24:05;;;;;;;18.20;4.00;;;5.90;99.90;;;;;;5066629;28;20079;-71
2022/01/05 10:26:38;;;;;;;20.25;3.33;;;6.00;99.90;;;;;;5072786;28;20055;-71
2022/01/05 10:29:15;;;;;;;20.02;4.32;;;6.00;99.90;;;;;;5045684;28;20053;-71
2022/01/05 10:31:42;;;;;;;17.67;2.47;;;6.00;99.90;;;;;;5098988;28;20050;-71
2022/01/05 10:34:21;;;;;;;26.08;3.47;;;6.00;99.90;;;;;;5070368;28;20048;-71
2022/01/05 10:36:53;;;;;;;26.90;3.22;;;6.00;99.90;;;;;;5099831;27;20056;-71
2022/01/05 10:39:27;;;;;;;17.92;3.08;;;6.00;99.90;;;;;;5092140;28;20073;-72
2022/01/05 10:41:53;;;;;;;23.20;4.57;;;6.00;99.90;;;;;;5068253;28;20075;-72
2022/01/05 10:44:24;;;;;;;14.98;3.75;;;6.10;99.90;;;;;;5097587;28;20244;-72
2022/01/05 10:46:51;;;;;;;19.27;3.10;;;6.10;99.90;;;;;;5085607;28;20041;-72
2022/01/05 10:49:30;;;;;;;21.92;3.15;;;6.20;99.90;;;;;;5094087;28;20127;-72
2022/01/05 10:52:20;;;;;;;15.95;2.83;;;6.40;99.90;;;;;;5062576;28;20123;-71
2022/01/05 10:54:47;;;;;;;17.48;3.45;;;6.50;99.90;;;;;;5069814;27;20067;-72
2022/01/05 10:57:13;;;;;;;20.00;3.80;;;6.60;99.90;;;;;;5109916;28;20121;-73
2022/01/05 10:59:47;;;;;;;22.95;3.75;;;6.70;99.90;;;;;;5088889;27;20035;-72
2022/01/05 11:02:43;;;;;;;16.17;3.47;;;6.90;99.90;;;;;;5086975;28;20045;-72
2022/01/05 11:05:08;;;;;;;18.95;3.17;;;6.90;99.90;;;;;;5072222;27;20047;-72
2022/01/05 11:07:39;;;;;;;17.75;3.20;;;7.00;99.90;;;;;;5105996;28;20113;-72
2022/01/05 11:10:09;;;;;;;15.90;2.83;;;7.10;99.90;;;;;;5093423;27;20120;-71
2022/01/05 11:12:44;;;;;;;16.48;2.75;;;7.20;99.90;;;;;;5106106;28;20051;-71
2022/01/05 11:15:28;;;;;;;19.55;3.83;;;7.20;99.90;;;;;;5095390;27;20054;-72
2022/01/05 11:18:16;;;;;;;25.83;4.47;;;7.10;99.90;;;;;;5093156;28;20044;-72
2022/01/05 11:20:52;;;;;;;26.35;3.67;;;7.10;99.90;;;;;;5092578;27;20062;-71
2022/01/05 11:23:20;;;;;;;21.15;3.80;;;7.10;99.90;;;;;;5121676;28;20055;-71
2022/01/05 11:25:48;;;;;;;21.60;3.10;;;7.20;99.90;;;;;;5108733;27;20074;-72
2022/01/05 11:28:16;;;;;;;23.90;3.75;;;7.20;99.90;;;;;;5113312;28;20035;-71
2022/01/05 11:30:43;;;;;;;24.50;3.90;;;7.20;99.90;;;;;;5110573;28;20061;-72
2022/01/05 11:33:10;;;;;;;23.55;4.07;;;7.40;99.90;;;;;;5109393;28;20072;-72
2022/01/05 11:35:36;;;;;;;24.95;3.08;;;7.30;99.90;;;;;;5118576;28;20052;-71
2022/01/05 11:38:04;;;;;;;20.98;3.38;;;7.30;99.90;;;;;;5087730;28;20054;-71
2022/01/05 11:40:32;;;;;;;21.92;2.97;;;7.30;99.90;;;;;;5114375;28;20508;-71
2022/01/05 11:43:01;;;;;;;24.55;3.15;;;7.40;99.90;;;;;;5125381;28;20077;-72
2022/01/05 11:45:33;;;;;;;22.13;2.92;;;7.40;99.90;;;;;;5110325;28;20043;-71
2022/01/05 11:48:20;;;;;;;17.13;3.42;;;7.40;99.90;;;;;;5109209;28;20046;-71
2022/01/05 11:50:52;;;;;;;18.15;3.25;;;7.50;99.90;;;;;;5117812;28;20093;-72
2022/01/05 11:53:31;;;;;;;13.35;3.20;;;7.50;99.90;;;;;;5105862;28;20089;-72
2022/01/05 11:56:01;;;;;;;16.05;2.47;;;7.40;99.90;;;;;;5102042;28;20094;-72
2022/01/05 11:58:33;;;;;;;18.77;2.88;;;7.40;99.90;;;;;;5106275;28;20051;-70
2022/01/05 12:01:33;;;;;;;18.77;3.30;;;7.40;99.90;;;;;;5084767;28;20043;-70
2022/01/05 12:04:03;;;;;;;24.13;3.40;;;7.40;99.90;;;;;;5096777;28;20039;-70
2022/01/05 12:06:34;;;;;;;18.65;3.83;;;7.50;99.90;;;;;;5102984;28;20043;-70
2022/01/05 12:09:16;;;;;;;14.80;3.22;;;7.60;99.90;;;;;;5099115;28;20260;-67
2022/01/05 12:11:42;;;;;;;18.38;3.10;;;7.70;99.90;;;;;;5104238;28;20043;-71
2022/01/05 12:14:31;;;;;;;14.48;2.92;;;7.60;99.90;;;;;;5098743;28;20499;-71
2022/01/05 12:17:03;;;;;;;15.38;3.20;;;7.60;99.90;;;;;;5124258;28;20043;-71
2022/01/05 12:19:35;;;;;;;20.27;2.95;;;7.70;99.90;;;;;;5098769;28;20067;-71
2022/01/05 12:22:14;;;;;;;19.27;2.83;;;7.70;99.90;;;;;;5123600;27;20085;-70
2022/01/05 12:25:03;;;;;;;13.60;2.90;;;7.80;99.90;;;;;;5116247;28;20193;-71
2022/01/05 12:27:37;;;;;;;18.95;3.03;;;7.70;99.90;;;;;;5108365;28;20056;-70
2022/01/05 12:30:18;;;;;;;16.85;3.05;;;7.70;99.90;;;;;;5121632;27;20099;-70
2022/01/05 12:32:46;;;;;;;13.02;2.58;;;7.70;99.90;;;;;;5132959;27;20404;-70
2022/01/05 12:35:15;;;;;;;13.77;2.90;;;7.70;99.90;;;;;;5112496;27;20068;-70
2022/01/05 12:38:06;;;;;;;15.27;2.80;;;7.70;99.90;;;;;;5133495;27;20091;-71
2022/01/05 12:40:37;;;;;;;15.15;3.05;;;7.60;99.90;;;;;;5098067;27;20059;-71
2022/01/05 12:43:06;;;;;;;14.93;2.38;;;7.50;99.90;;;;;;5114834;28;20059;-70
2022/01/05 12:45:57;;;;;;;19.92;3.17;;;7.40;99.90;;;;;;5127636;27;20100;-70
2022/01/05 12:48:32;;;;;;;11.85;3.03;;;7.50;99.90;;;;;;5088175;28;20487;-70
2022/01/05 12:51:20;;;;;;;10.98;2.67;;;7.40;99.90;;;;;;5119703;27;20622;-70
2022/01/05 12:54:02;;;;;;;14.90;2.53;;;7.50;99.90;;;;;;5126940;27;20062;-70
2022/01/05 12:56:35;;;;;;;14.80;2.38;;;7.60;99.90;;;;;;5121342;27;20062;-70
2022/01/05 12:59:03;;;;;;;15.13;3.55;;;7.60;99.90;;;;;;5121667;27;20108;-70